sensor_id;sensor_type;location;lat;lon;timestamp;pressure;altitude;pressure_sealevel;temperature;humidity
38718;BME280;24468;52.128;9.278;2023-09-12T00:00:55;100397.22;;;22.48;100.00
38718;BME280;24468;52.128;9.278;2023-09-12T00:03:22;100398.41;;;22.35;100.00
38718;BME280;24468;52.128;9.278;2023-09-12T00:05:56;100384.75;;;22.53;100.00
38718;BME280;24468;52.128;9.278;2023-09-12T00:08:22;100366.94;;;23.04;100.00
38718;BME280;24468;52.128;9.278;2023-09-12T00:11:09;100364.44;;;22.74;100.00
38718;BME280;24468;52.128;9.278;2023-09-12T00:13:38;100361.38;;;22.77;100.00
38718;BME280;24468;52.128;9.278;2023-09-12T00:16:04;100357.59;;;22.78;100.00
38718;BME280;24468;52.128;9.278;2023-09-12T00:18:31;100354.59;;;22.71;100.00
38718;BME280;24468;52.128;9.278;2023-09-12T00:20:56;100357.06;;;22.64;100.00
38718;BME280;24468;52.128;9.278;2023-09-12T00:23:24;100348.72;;;22.56;100.00
38718;BME280;24468;52.128;9.278;2023-09-12T00:25:50;100335.81;;;22.57;100.00
38718;BME280;24468;52.128;9.278;2023-09-12T00:28:17;100335.56;;;22.60;100.00
38718;BME280;24468;52.128;9.278;2023-09-12T00:30:43;100335.31;;;22.44;100.00
38718;BME280;24468;52.128;9.278;2023-09-12T00:33:08;100340.47;;;22.00;100.00
38718;BME280;24468;52.128;9.278;2023-09-12T00:35:34;100340.88;;;22.24;100.00
38718;BME280;24468;52.128;9.278;2023-09-12T00:37:59;100335.78;;;22.76;100.00
38718;BME280;24468;52.128;9.278;2023-09-12T00:40:25;100336.34;;;22.70;100.00
38718;BME280;24468;52.128;9.278;2023-09-12T00:42:51;100333.84;;;22.49;100.00
38718;BME280;24468;52.128;9.278;2023-09-12T00:45:16;100329.03;;;22.51;100.00
38718;BME280;24468;52.128;9.278;2023-09-12T00:47:42;100327.28;;;22.03;100.00
38718;BME280;24468;52.128;9.278;2023-09-12T00:50:08;100322.22;;;22.18;100.00
38718;BME280;24468;52.128;9.278;2023-09-12T00:52:36;100315.53;;;22.30;100.00
38718;BME280;24468;52.128;9.278;2023-09-12T00:55:04;100322.81;;;22.22;100.00
38718;BME280;24468;52.128;9.278;2023-09-12T00:57:31;100319.53;;;22.73;100.00
38718;BME280;24468;52.128;9.278;2023-09-12T00:59:57;100320.97;;;23.15;100.00
38718;BME280;24468;52.128;9.278;2023-09-12T01:02:24;100320.75;;;23.26;100.00
38718;BME280;24468;52.128;9.278;2023-09-12T01:04:50;100316.31;;;22.88;100.00
38718;BME280;24468;52.128;9.278;2023-09-12T01:07:16;100323.19;;;22.27;100.00
38718;BME280;24468;52.128;9.278;2023-09-12T01:09:42;100331.06;;;21.44;100.00
38718;BME280;24468;52.128;9.278;2023-09-12T01:12:08;100325.41;;;22.13;100.00
38718;BME280;24468;52.128;9.278;2023-09-12T01:14:34;100320.28;;;22.38;100.00
38718;BME280;24468;52.128;9.278;2023-09-12T01:17:00;100312.09;;;22.66;100.00
38718;BME280;24468;52.128;9.278;2023-09-12T01:19:27;100304.91;;;22.55;100.00
38718;BME280;24468;52.128;9.278;2023-09-12T01:25:08;100308.19;;;22.02;100.00
38718;BME280;24468;52.128;9.278;2023-09-12T01:27:48;100302.59;;;21.74;100.00
38718;BME280;24468;52.128;9.278;2023-09-12T01:30:18;100306.94;;;21.67;100.00
38718;BME280;24468;52.128;9.278;2023-09-12T01:32:46;100318.09;;;21.56;100.00
38718;BME280;24468;52.128;9.278;2023-09-12T01:35:12;100310.25;;;21.61;100.00
38718;BME280;24468;52.128;9.278;2023-09-12T01:37:38;100315.75;;;21.61;100.00
38718;BME280;24468;52.128;9.278;2023-09-12T01:40:04;100321.09;;;21.62;100.00
38718;BME280;24468;52.128;9.278;2023-09-12T01:42:35;100324.88;;;21.61;100.00
38718;BME280;24468;52.128;9.278;2023-09-12T01:45:01;100325.00;;;21.60;100.00
38718;BME280;24468;52.128;9.278;2023-09-12T01:47:28;100327.31;;;21.74;100.00
38718;BME280;24468;52.128;9.278;2023-09-12T01:49:57;100330.22;;;21.53;100.00
38718;BME280;24468;52.128;9.278;2023-09-12T01:52:25;100335.28;;;21.67;100.00
38718;BME280;24468;52.128;9.278;2023-09-12T01:54:52;100336.72;;;21.62;100.00
38718;BME280;24468;52.128;9.278;2023-09-12T01:57:18;100341.19;;;21.53;100.00
38718;BME280;24468;52.128;9.278;2023-09-12T01:59:48;100354.31;;;21.40;100.00
38718;BME280;24468;52.128;9.278;2023-09-12T02:02:18;100358.78;;;21.41;100.00
38718;BME280;24468;52.128;9.278;2023-09-12T02:05:13;100373.97;;;21.45;100.00
38718;BME280;24468;52.128;9.278;2023-09-12T02:07:41;100409.13;;;20.90;100.00
38718;BME280;24468;52.128;9.278;2023-09-12T02:10:08;100438.72;;;19.59;100.00
38718;BME280;24468;52.128;9.278;2023-09-12T02:12:35;100417.47;;;19.94;100.00
38718;BME280;24468;52.128;9.278;2023-09-12T02:15:00;100417.94;;;20.20;100.00
38718;BME280;24468;52.128;9.278;2023-09-12T02:17:26;100426.09;;;20.32;100.00
38718;BME280;24468;52.128;9.278;2023-09-12T02:19:51;100431.78;;;20.19;100.00
38718;BME280;24468;52.128;9.278;2023-09-12T02:22:17;100414.44;;;20.30;100.00
38718;BME280;24468;52.128;9.278;2023-09-12T02:24:42;100421.56;;;20.42;100.00
38718;BME280;24468;52.128;9.278;2023-09-12T02:27:08;100411.66;;;20.72;100.00
38718;BME280;24468;52.128;9.278;2023-09-12T02:29:34;100406.75;;;20.65;100.00
38718;BME280;24468;52.128;9.278;2023-09-12T02:32:00;100396.47;;;20.68;100.00
38718;BME280;24468;52.128;9.278;2023-09-12T02:34:25;100398.00;;;20.81;100.00
38718;BME280;24468;52.128;9.278;2023-09-12T02:36:51;100404.22;;;20.83;100.00
38718;BME280;24468;52.128;9.278;2023-09-12T02:39:16;100398.44;;;20.86;100.00
38718;BME280;24468;52.128;9.278;2023-09-12T02:41:42;100376.91;;;21.22;100.00
38718;BME280;24468;52.128;9.278;2023-09-12T02:44:07;100375.41;;;21.39;100.00
38718;BME280;24468;52.128;9.278;2023-09-12T02:46:34;100372.03;;;21.36;100.00
38718;BME280;24468;52.128;9.278;2023-09-12T02:48:59;100353.78;;;21.75;100.00
38718;BME280;24468;52.128;9.278;2023-09-12T02:51:26;100349.69;;;21.98;100.00
38718;BME280;24468;52.128;9.278;2023-09-12T02:53:51;100349.56;;;21.90;100.00
38718;BME280;24468;52.128;9.278;2023-09-12T02:56:17;100365.91;;;21.92;100.00
38718;BME280;24468;52.128;9.278;2023-09-12T02:58:46;100386.53;;;21.38;100.00
38718;BME280;24468;52.128;9.278;2023-09-12T03:01:20;100395.81;;;21.56;100.00
38718;BME280;24468;52.128;9.278;2023-09-12T03:03:47;100403.16;;;21.46;100.00
38718;BME280;24468;52.128;9.278;2023-09-12T03:06:13;100404.19;;;22.03;100.00
38718;BME280;24468;52.128;9.278;2023-09-12T03:08:44;100402.75;;;22.28;100.00
38718;BME280;24468;52.128;9.278;2023-09-12T03:11:10;100411.56;;;22.12;100.00
38718;BME280;24468;52.128;9.278;2023-09-12T03:13:42;100410.72;;;21.92;100.00
38718;BME280;24468;52.128;9.278;2023-09-12T03:16:11;100420.22;;;22.17;100.00
38718;BME280;24468;52.128;9.278;2023-09-12T03:18:37;100440.72;;;21.45;100.00
38718;BME280;24468;52.128;9.278;2023-09-12T03:21:03;100469.59;;;21.09;100.00
38718;BME280;24468;52.128;9.278;2023-09-12T03:23:28;100467.25;;;21.04;100.00
38718;BME280;24468;52.128;9.278;2023-09-12T03:25:54;100490.88;;;20.96;100.00
38718;BME280;24468;52.128;9.278;2023-09-12T03:28:19;100490.50;;;20.79;100.00
38718;BME280;24468;52.128;9.278;2023-09-12T03:30:45;100500.09;;;20.53;100.00
38718;BME280;24468;52.128;9.278;2023-09-12T03:33:10;100496.69;;;20.81;100.00
38718;BME280;24468;52.128;9.278;2023-09-12T03:35:36;100469.09;;;20.73;100.00
38718;BME280;24468;52.128;9.278;2023-09-12T03:38:02;100446.00;;;20.97;100.00
38718;BME280;24468;52.128;9.278;2023-09-12T03:40:31;100453.63;;;20.93;100.00
38718;BME280;24468;52.128;9.278;2023-09-12T03:42:57;100452.44;;;20.86;100.00
38718;BME280;24468;52.128;9.278;2023-09-12T03:45:24;100416.41;;;21.00;100.00
38718;BME280;24468;52.128;9.278;2023-09-12T03:47:50;100399.66;;;21.44;100.00
38718;BME280;24468;52.128;9.278;2023-09-12T03:50:16;100391.34;;;21.65;100.00
38718;BME280;24468;52.128;9.278;2023-09-12T03:52:41;100378.44;;;22.04;100.00
38718;BME280;24468;52.128;9.278;2023-09-12T03:55:07;100366.00;;;22.10;100.00
38718;BME280;24468;52.128;9.278;2023-09-12T03:57:33;100379.91;;;22.18;100.00
38718;BME280;24468;52.128;9.278;2023-09-12T03:59:59;100380.50;;;21.92;100.00
38718;BME280;24468;52.128;9.278;2023-09-12T04:02:24;100361.66;;;22.07;100.00
38718;BME280;24468;52.128;9.278;2023-09-12T04:04:50;100348.34;;;22.41;100.00
38718;BME280;24468;52.128;9.278;2023-09-12T04:07:17;100341.41;;;22.37;100.00
38718;BME280;24468;52.128;9.278;2023-09-12T04:09:42;100325.06;;;22.36;100.00
38718;BME280;24468;52.128;9.278;2023-09-12T04:12:08;100335.03;;;22.37;100.00
38718;BME280;24468;52.128;9.278;2023-09-12T04:14:35;100341.28;;;22.29;100.00
38718;BME280;24468;52.128;9.278;2023-09-12T04:17:01;100345.19;;;22.27;100.00
38718;BME280;24468;52.128;9.278;2023-09-12T04:19:26;100353.97;;;22.50;100.00
38718;BME280;24468;52.128;9.278;2023-09-12T04:21:52;100376.69;;;22.32;100.00
38718;BME280;24468;52.128;9.278;2023-09-12T04:24:17;100383.66;;;22.36;100.00
38718;BME280;24468;52.128;9.278;2023-09-12T04:26:44;100383.38;;;22.30;100.00
38718;BME280;24468;52.128;9.278;2023-09-12T04:29:10;100374.31;;;22.67;100.00
38718;BME280;24468;52.128;9.278;2023-09-12T04:31:36;100380.72;;;22.57;100.00
38718;BME280;24468;52.128;9.278;2023-09-12T04:34:02;100386.88;;;22.22;100.00
38718;BME280;24468;52.128;9.278;2023-09-12T04:36:27;100394.22;;;21.73;100.00
38718;BME280;24468;52.128;9.278;2023-09-12T04:38:53;100401.16;;;22.26;100.00
38718;BME280;24468;52.128;9.278;2023-09-12T04:41:19;100404.94;;;22.25;100.00
38718;BME280;24468;52.128;9.278;2023-09-12T04:43:44;100432.81;;;21.62;100.00
38718;BME280;24468;52.128;9.278;2023-09-12T04:46:13;100460.63;;;21.07;100.00
38718;BME280;24468;52.128;9.278;2023-09-12T04:48:39;100477.34;;;21.35;100.00
38718;BME280;24468;52.128;9.278;2023-09-12T04:51:05;100476.72;;;21.21;100.00
38718;BME280;24468;52.128;9.278;2023-09-12T04:53:30;100461.72;;;21.25;100.00
38718;BME280;24468;52.128;9.278;2023-09-12T04:56:03;100434.94;;;21.58;100.00
38718;BME280;24468;52.128;9.278;2023-09-12T04:58:29;100425.16;;;21.75;100.00
38718;BME280;24468;52.128;9.278;2023-09-12T05:00:55;100422.84;;;21.90;100.00
38718;BME280;24468;52.128;9.278;2023-09-12T05:03:22;100428.94;;;21.84;100.00
38718;BME280;24468;52.128;9.278;2023-09-12T05:05:49;100418.78;;;21.94;100.00
38718;BME280;24468;52.128;9.278;2023-09-12T05:08:16;100416.19;;;22.02;100.00
38718;BME280;24468;52.128;9.278;2023-09-12T05:10:44;100403.03;;;22.06;100.00
38718;BME280;24468;52.128;9.278;2023-09-12T05:13:09;100405.63;;;22.07;100.00
38718;BME280;24468;52.128;9.278;2023-09-12T05:15:35;100410.69;;;22.12;100.00
38718;BME280;24468;52.128;9.278;2023-09-12T05:18:02;100418.06;;;21.72;100.00
38718;BME280;24468;52.128;9.278;2023-09-12T05:20:28;100425.28;;;21.73;100.00
38718;BME280;24468;52.128;9.278;2023-09-12T05:22:53;100452.78;;;21.83;100.00
38718;BME280;24468;52.128;9.278;2023-09-12T05:25:19;100445.84;;;21.89;100.00
38718;BME280;24468;52.128;9.278;2023-09-12T05:27:44;100446.13;;;21.86;100.00
38718;BME280;24468;52.128;9.278;2023-09-12T05:30:10;100462.72;;;21.94;100.00
38718;BME280;24468;52.128;9.278;2023-09-12T05:32:36;100471.56;;;21.88;100.00
38718;BME280;24468;52.128;9.278;2023-09-12T05:35:02;100517.63;;;21.65;100.00
38718;BME280;24468;52.128;9.278;2023-09-12T05:37:28;100538.91;;;21.72;100.00
38718;BME280;24468;52.128;9.278;2023-09-12T05:39:54;100536.56;;;21.68;100.00
38718;BME280;24468;52.128;9.278;2023-09-12T05:42:19;100537.41;;;21.59;100.00
38718;BME280;24468;52.128;9.278;2023-09-12T05:44:50;100508.06;;;21.59;100.00
38718;BME280;24468;52.128;9.278;2023-09-12T05:47:19;100490.81;;;21.38;100.00
38718;BME280;24468;52.128;9.278;2023-09-12T05:49:45;100467.84;;;21.39;100.00
38718;BME280;24468;52.128;9.278;2023-09-12T05:52:10;100457.22;;;21.24;100.00
38718;BME280;24468;52.128;9.278;2023-09-12T05:54:36;100454.00;;;21.09;100.00
38718;BME280;24468;52.128;9.278;2023-09-12T05:57:03;100442.06;;;21.20;100.00
38718;BME280;24468;52.128;9.278;2023-09-12T05:59:28;100441.72;;;21.14;100.00
38718;BME280;24468;52.128;9.278;2023-09-12T06:01:54;100451.00;;;21.22;100.00
38718;BME280;24468;52.128;9.278;2023-09-12T06:04:21;100434.13;;;21.27;100.00
38718;BME280;24468;52.128;9.278;2023-09-12T06:06:46;100431.50;;;21.16;100.00
38718;BME280;24468;52.128;9.278;2023-09-12T06:09:12;100420.22;;;21.09;100.00
38718;BME280;24468;52.128;9.278;2023-09-12T06:11:38;100418.53;;;20.87;100.00
38718;BME280;24468;52.128;9.278;2023-09-12T06:14:03;100414.13;;;21.05;100.00
38718;BME280;24468;52.128;9.278;2023-09-12T06:16:29;100406.28;;;20.91;100.00
38718;BME280;24468;52.128;9.278;2023-09-12T06:18:55;100386.03;;;20.82;100.00
38718;BME280;24468;52.128;9.278;2023-09-12T06:21:21;100394.44;;;20.91;100.00
38718;BME280;24468;52.128;9.278;2023-09-12T06:26:37;100377.75;;;21.13;100.00
38718;BME280;24468;52.128;9.278;2023-09-12T06:29:03;100391.63;;;20.71;100.00
38718;BME280;24468;52.128;9.278;2023-09-12T06:31:29;100385.47;;;20.88;100.00
38718;BME280;24468;52.128;9.278;2023-09-12T06:33:55;100366.28;;;20.88;100.00
38718;BME280;24468;52.128;9.278;2023-09-12T06:36:20;100365.72;;;20.95;100.00
38718;BME280;24468;52.128;9.278;2023-09-12T06:38:46;100347.03;;;21.09;100.00
38718;BME280;24468;52.128;9.278;2023-09-12T06:41:11;100334.75;;;21.33;100.00
38718;BME280;24468;52.128;9.278;2023-09-12T06:43:37;100315.44;;;21.35;100.00
38718;BME280;24468;52.128;9.278;2023-09-12T06:46:02;100326.41;;;21.35;100.00
38718;BME280;24468;52.128;9.278;2023-09-12T06:48:28;100333.63;;;21.36;100.00
38718;BME280;24468;52.128;9.278;2023-09-12T06:50:56;100335.97;;;21.40;100.00
38718;BME280;24468;52.128;9.278;2023-09-12T06:53:22;100324.72;;;21.63;100.00
38718;BME280;24468;52.128;9.278;2023-09-12T06:55:47;100319.94;;;21.84;100.00
38718;BME280;24468;52.128;9.278;2023-09-12T06:58:13;100318.31;;;22.01;100.00
38718;BME280;24468;52.128;9.278;2023-09-12T07:00:38;100315.81;;;22.17;100.00
38718;BME280;24468;52.128;9.278;2023-09-12T07:03:04;100327.03;;;22.81;100.00
38718;BME280;24468;52.128;9.278;2023-09-12T07:05:29;100337.97;;;23.46;100.00
38718;BME280;24468;52.128;9.278;2023-09-12T07:07:55;100351.19;;;23.42;100.00
38718;BME280;24468;52.128;9.278;2023-09-12T07:10:21;100352.28;;;23.49;100.00
38718;BME280;24468;52.128;9.278;2023-09-12T07:12:46;100337.97;;;24.00;100.00
38718;BME280;24468;52.128;9.278;2023-09-12T07:15:12;100349.28;;;24.40;100.00
38718;BME280;24468;52.128;9.278;2023-09-12T07:17:38;100345.75;;;24.22;100.00
38718;BME280;24468;52.128;9.278;2023-09-12T07:20:05;100352.81;;;24.25;100.00
38718;BME280;24468;52.128;9.278;2023-09-12T07:22:37;100343.47;;;24.17;100.00
38718;BME280;24468;52.128;9.278;2023-09-12T07:25:04;100339.72;;;24.45;100.00
38718;BME280;24468;52.128;9.278;2023-09-12T07:27:30;100328.38;;;24.82;100.00
38718;BME280;24468;52.128;9.278;2023-09-12T07:29:55;100329.41;;;24.89;100.00
38718;BME280;24468;52.128;9.278;2023-09-12T07:32:21;100335.50;;;25.01;100.00
38718;BME280;24468;52.128;9.278;2023-09-12T07:34:46;100337.75;;;25.05;100.00
38718;BME280;24468;52.128;9.278;2023-09-12T07:37:14;100341.31;;;25.24;100.00
38718;BME280;24468;52.128;9.278;2023-09-12T07:39:39;100354.66;;;25.02;100.00
38718;BME280;24468;52.128;9.278;2023-09-12T07:42:05;100365.28;;;24.55;100.00
38718;BME280;24468;52.128;9.278;2023-09-12T07:44:31;100386.91;;;24.68;100.00
38718;BME280;24468;52.128;9.278;2023-09-12T07:46:56;100389.03;;;24.74;100.00
38718;BME280;24468;52.128;9.278;2023-09-12T07:49:22;100387.50;;;24.79;100.00
38718;BME280;24468;52.128;9.278;2023-09-12T07:51:49;100394.13;;;24.42;100.00
38718;BME280;24468;52.128;9.278;2023-09-12T07:54:15;100398.44;;;24.01;100.00
38718;BME280;24468;52.128;9.278;2023-09-12T07:56:43;100401.88;;;24.21;100.00
38718;BME280;24468;52.128;9.278;2023-09-12T07:59:08;100406.84;;;24.00;100.00
38718;BME280;24468;52.128;9.278;2023-09-12T08:01:35;100427.03;;;23.82;100.00
38718;BME280;24468;52.128;9.278;2023-09-12T08:04:00;100445.09;;;23.12;100.00
38718;BME280;24468;52.128;9.278;2023-09-12T08:06:26;100473.72;;;22.62;100.00
38718;BME280;24468;52.128;9.278;2023-09-12T08:08:52;100487.44;;;22.91;100.00
38718;BME280;24468;52.128;9.278;2023-09-12T08:11:17;100491.81;;;22.06;100.00
38718;BME280;24468;52.128;9.278;2023-09-12T08:13:45;100499.53;;;22.22;100.00
38718;BME280;24468;52.128;9.278;2023-09-12T08:16:11;100499.78;;;22.00;100.00
38718;BME280;24468;52.128;9.278;2023-09-12T08:18:36;100513.34;;;21.91;100.00
38718;BME280;24468;52.128;9.278;2023-09-12T08:21:02;100515.63;;;21.76;100.00
38718;BME280;24468;52.128;9.278;2023-09-12T08:23:27;100514.63;;;21.78;100.00
38718;BME280;24468;52.128;9.278;2023-09-12T08:25:53;100525.63;;;21.78;100.00
38718;BME280;24468;52.128;9.278;2023-09-12T08:28:18;100528.78;;;21.83;100.00
38718;BME280;24468;52.128;9.278;2023-09-12T08:30:45;100522.03;;;22.06;100.00
38718;BME280;24468;52.128;9.278;2023-09-12T08:33:11;100535.47;;;21.40;100.00
38718;BME280;24468;52.128;9.278;2023-09-12T08:35:37;100535.34;;;22.01;100.00
38718;BME280;24468;52.128;9.278;2023-09-12T08:38:02;100506.31;;;22.37;100.00
38718;BME280;24468;52.128;9.278;2023-09-12T08:40:28;100523.06;;;22.05;100.00
38718;BME280;24468;52.128;9.278;2023-09-12T08:42:57;100542.19;;;21.66;100.00
38718;BME280;24468;52.128;9.278;2023-09-12T08:45:23;100543.53;;;21.41;100.00
38718;BME280;24468;52.128;9.278;2023-09-12T08:47:52;100540.94;;;21.90;100.00
38718;BME280;24468;52.128;9.278;2023-09-12T08:50:18;100548.59;;;22.46;100.00
38718;BME280;24468;52.128;9.278;2023-09-12T08:52:47;100564.34;;;22.63;100.00
38718;BME280;24468;52.128;9.278;2023-09-12T08:55:13;100564.34;;;22.63;100.00
38718;BME280;24468;52.128;9.278;2023-09-12T08:57:42;100574.91;;;22.58;100.00
38718;BME280;24468;52.128;9.278;2023-09-12T09:00:09;100569.84;;;22.44;100.00
38718;BME280;24468;52.128;9.278;2023-09-12T09:02:40;100578.66;;;22.67;100.00
38718;BME280;24468;52.128;9.278;2023-09-12T09:05:07;100588.91;;;23.14;100.00
38718;BME280;24468;52.128;9.278;2023-09-12T09:07:41;100588.19;;;23.12;100.00
38718;BME280;24468;52.128;9.278;2023-09-12T09:10:13;100578.66;;;22.48;100.00
38718;BME280;24468;52.128;9.278;2023-09-12T09:12:40;100585.63;;;22.71;100.00
38718;BME280;24468;52.128;9.278;2023-09-12T09:15:23;100576.91;;;22.37;100.00
38718;BME280;24468;52.128;9.278;2023-09-12T09:17:49;100583.13;;;21.79;100.00
38718;BME280;24468;52.128;9.278;2023-09-12T09:20:32;100577.28;;;22.03;100.00
38718;BME280;24468;52.128;9.278;2023-09-12T09:23:05;100576.06;;;21.25;100.00
38718;BME280;24468;52.128;9.278;2023-09-12T09:25:34;100586.47;;;21.00;100.00
38718;BME280;24468;52.128;9.278;2023-09-12T09:28:21;100573.59;;;21.22;100.00
38718;BME280;24468;52.128;9.278;2023-09-12T09:30:49;100592.63;;;22.15;100.00
38718;BME280;24468;52.128;9.278;2023-09-12T09:33:16;100585.03;;;22.48;100.00
38718;BME280;24468;52.128;9.278;2023-09-12T09:35:45;100592.69;;;23.03;100.00
38718;BME280;24468;52.128;9.278;2023-09-12T09:38:11;100582.22;;;23.26;100.00
38718;BME280;24468;52.128;9.278;2023-09-12T09:40:44;100564.00;;;22.18;100.00
38718;BME280;24468;52.128;9.278;2023-09-12T09:43:10;100573.66;;;22.03;100.00
38718;BME280;24468;52.128;9.278;2023-09-12T09:45:46;100553.06;;;21.78;100.00
38718;BME280;24468;52.128;9.278;2023-09-12T09:48:25;100544.28;;;21.22;100.00
38718;BME280;24468;52.128;9.278;2023-09-12T09:50:53;100540.38;;;21.15;100.00
38718;BME280;24468;52.128;9.278;2023-09-12T09:53:31;100550.03;;;21.19;100.00
38718;BME280;24468;52.128;9.278;2023-09-12T09:58:35;100550.00;;;21.09;100.00
38718;BME280;24468;52.128;9.278;2023-09-12T10:01:01;100520.13;;;20.64;100.00
38718;BME280;24468;52.128;9.278;2023-09-12T10:03:30;100491.69;;;20.86;100.00
38718;BME280;24468;52.128;9.278;2023-09-12T10:06:00;100508.53;;;21.03;100.00
38718;BME280;24468;52.128;9.278;2023-09-12T10:08:27;100533.00;;;21.16;100.00
38718;BME280;24468;52.128;9.278;2023-09-12T10:10:53;100533.41;;;21.42;100.00
38718;BME280;24468;52.128;9.278;2023-09-12T10:13:19;100529.34;;;21.67;100.00
38718;BME280;24468;52.128;9.278;2023-09-12T10:15:46;100521.31;;;22.04;100.00
38718;BME280;24468;52.128;9.278;2023-09-12T10:18:19;100507.72;;;22.03;100.00
38718;BME280;24468;52.128;9.278;2023-09-12T10:20:52;100509.97;;;21.68;100.00
38718;BME280;24468;52.128;9.278;2023-09-12T10:23:37;100512.25;;;21.63;100.00
38718;BME280;24468;52.128;9.278;2023-09-12T10:26:10;100508.56;;;21.84;100.00
38718;BME280;24468;52.128;9.278;2023-09-12T10:28:40;100518.47;;;21.56;100.00
38718;BME280;24468;52.128;9.278;2023-09-12T10:31:08;100512.09;;;21.55;100.00
38718;BME280;24468;52.128;9.278;2023-09-12T10:33:34;100516.72;;;21.24;100.00
38718;BME280;24468;52.128;9.278;2023-09-12T10:36:03;100521.81;;;21.28;100.00
38718;BME280;24468;52.128;9.278;2023-09-12T10:38:33;100533.84;;;21.37;100.00
38718;BME280;24468;52.128;9.278;2023-09-12T10:41:02;100548.78;;;21.54;100.00
38718;BME280;24468;52.128;9.278;2023-09-12T10:43:29;100540.50;;;21.44;100.00
38718;BME280;24468;52.128;9.278;2023-09-12T10:46:01;100539.59;;;22.34;100.00
38718;BME280;24468;52.128;9.278;2023-09-12T10:48:30;100555.94;;;22.75;100.00
38718;BME280;24468;52.128;9.278;2023-09-12T10:50:58;100571.28;;;23.06;100.00
38718;BME280;24468;52.128;9.278;2023-09-12T10:53:27;100566.38;;;22.71;100.00
38718;BME280;24468;52.128;9.278;2023-09-12T10:56:00;100558.38;;;22.29;100.00
38718;BME280;24468;52.128;9.278;2023-09-12T10:58:26;100577.22;;;22.34;100.00
38718;BME280;24468;52.128;9.278;2023-09-12T11:01:24;100554.94;;;22.47;100.00
38718;BME280;24468;52.128;9.278;2023-09-12T11:03:51;100525.75;;;21.76;100.00
38718;BME280;24468;52.128;9.278;2023-09-12T11:06:21;100529.81;;;21.82;100.00
38718;BME280;24468;52.128;9.278;2023-09-12T11:11:45;100599.22;;;22.73;100.00
38718;BME280;24468;52.128;9.278;2023-09-12T11:14:15;100611.22;;;23.11;100.00
38718;BME280;24468;52.128;9.278;2023-09-12T11:16:42;100614.53;;;23.24;100.00
38718;BME280;24468;52.128;9.278;2023-09-12T11:19:21;100581.19;;;23.27;100.00
38718;BME280;24468;52.128;9.278;2023-09-12T11:21:53;100529.06;;;21.80;100.00
38718;BME280;24468;52.128;9.278;2023-09-12T11:24:20;100537.31;;;21.80;100.00
38718;BME280;24468;52.128;9.278;2023-09-12T11:26:56;100530.53;;;21.84;100.00
38718;BME280;24468;52.128;9.278;2023-09-12T11:29:37;100531.91;;;21.59;100.00
38718;BME280;24468;52.128;9.278;2023-09-12T11:32:03;100470.75;;;21.16;100.00
38718;BME280;24468;52.128;9.278;2023-09-12T11:34:38;100524.50;;;22.00;100.00
38718;BME280;24468;52.128;9.278;2023-09-12T11:37:04;100490.19;;;21.94;100.00
38718;BME280;24468;52.128;9.278;2023-09-12T11:39:33;100456.66;;;21.30;100.00
38718;BME280;24468;52.128;9.278;2023-09-12T11:42:01;100481.97;;;21.84;100.00
38718;BME280;24468;52.128;9.278;2023-09-12T11:44:28;100502.22;;;22.12;100.00
38718;BME280;24468;52.128;9.278;2023-09-12T11:47:00;100503.13;;;22.32;100.00
38718;BME280;24468;52.128;9.278;2023-09-12T11:49:36;100506.59;;;22.34;100.00
38718;BME280;24468;52.128;9.278;2023-09-12T11:52:02;100503.00;;;22.34;100.00
38718;BME280;24468;52.128;9.278;2023-09-12T11:54:29;100494.47;;;22.37;100.00
38718;BME280;24468;52.128;9.278;2023-09-12T11:56:57;100477.78;;;21.90;100.00
38718;BME280;24468;52.128;9.278;2023-09-12T11:59:30;100481.28;;;21.42;100.00
38718;BME280;24468;52.128;9.278;2023-09-12T12:01:56;100478.44;;;21.63;100.00
38718;BME280;24468;52.128;9.278;2023-09-12T12:04:23;100475.91;;;21.81;100.00
38718;BME280;24468;52.128;9.278;2023-09-12T12:06:51;100474.03;;;22.10;100.00
38718;BME280;24468;52.128;9.278;2023-09-12T12:09:17;100464.09;;;22.19;100.00
38718;BME280;24468;52.128;9.278;2023-09-12T12:11:47;100470.16;;;22.23;100.00
38718;BME280;24468;52.128;9.278;2023-09-12T12:14:16;100466.25;;;22.54;100.00
38718;BME280;24468;52.128;9.278;2023-09-12T12:16:43;100464.06;;;22.48;100.00
38718;BME280;24468;52.128;9.278;2023-09-12T12:19:10;100461.13;;;22.69;100.00
38718;BME280;24468;52.128;9.278;2023-09-12T12:21:41;100471.19;;;23.07;100.00
38718;BME280;24468;52.128;9.278;2023-09-12T12:24:13;100463.25;;;23.32;100.00
38718;BME280;24468;52.128;9.278;2023-09-12T12:26:45;100466.34;;;23.47;100.00
38718;BME280;24468;52.128;9.278;2023-09-12T12:29:11;100453.09;;;23.33;100.00
38718;BME280;24468;52.128;9.278;2023-09-12T12:31:37;100450.03;;;23.36;100.00
38718;BME280;24468;52.128;9.278;2023-09-12T12:34:04;100443.88;;;23.24;100.00
38718;BME280;24468;52.128;9.278;2023-09-12T12:36:30;100438.91;;;23.55;100.00
38718;BME280;24468;52.128;9.278;2023-09-12T12:38:56;100438.44;;;23.87;100.00
38718;BME280;24468;52.128;9.278;2023-09-12T12:41:29;100435.38;;;23.90;100.00
38718;BME280;24468;52.128;9.278;2023-09-12T12:43:57;100438.28;;;24.25;100.00
38718;BME280;24468;52.128;9.278;2023-09-12T12:46:27;100434.63;;;24.42;100.00
38718;BME280;24468;52.128;9.278;2023-09-12T12:48:54;100431.69;;;24.61;100.00
38718;BME280;24468;52.128;9.278;2023-09-12T12:51:24;100427.53;;;24.57;100.00
38718;BME280;24468;52.128;9.278;2023-09-12T12:53:53;100413.16;;;24.72;100.00